Time;durP1;ratioP1;P1;durP2;ratioP2;P2;SDS_P1;SDS_P2;PMS_P1;PMS_P2;Temp;Humidity;BMP_temperature;BMP_pressure;BME280_temperature;BME280_humidity;BME280_pressure;Samples;Min_cycle;Max_cycle;Signal;HPM_P1;HPM_P2
2022/07/16 00:01:28;;;;;;;1.47;1.37;;;23.60;47.90;;;;;;4868550;29;20216;-59
2022/07/16 00:03:59;;;;;;;1.57;1.47;;;23.60;47.80;;;;;;4866048;29;20185;-71
2022/07/16 00:06:27;;;;;;;1.50;1.40;;;23.60;47.80;;;;;;4870214;29;20479;-63
2022/07/16 00:08:53;;;;;;;1.50;1.40;;;23.60;47.80;;;;;;4871882;29;20432;-65
2022/07/16 00:11:20;;;;;;;1.57;1.47;;;23.60;47.80;;;;;;4872928;29;20495;-69
2022/07/16 00:13:46;;;;;;;1.50;1.40;;;23.60;47.80;;;;;;4870154;29;20446;-57
2022/07/16 00:16:12;;;;;;;1.50;1.40;;;23.60;47.80;;;;;;4864254;29;20454;-64
2022/07/16 00:21:24;;;;;;;1.40;1.30;;;23.60;47.80;;;;;;4869371;29;20464;-59
2022/07/16 00:23:51;;;;;;;1.40;1.30;;;23.60;47.80;;;;;;4881319;29;20440;-57
2022/07/16 00:26:19;;;;;;;1.50;1.40;;;23.60;47.80;;;;;;4868547;29;20757;-60
2022/07/16 00:28:46;;;;;;;1.40;1.30;;;23.60;47.80;;;;;;4871560;29;20790;-61
2022/07/16 00:31:11;;;;;;;1.50;1.40;;;23.60;47.80;;;;;;4868921;29;20668;-63
2022/07/16 00:33:37;;;;;;;1.63;1.53;;;23.60;47.80;;;;;;4872171;29;21793;-62
2022/07/16 00:36:04;;;;;;;1.57;1.47;;;23.60;47.80;;;;;;4873489;29;20193;-62
2022/07/16 00:38:30;;;;;;;1.50;1.40;;;23.60;47.80;;;;;;4879830;29;20188;-60
2022/07/16 00:40:58;;;;;;;1.53;1.43;;;23.60;47.80;;;;;;4873492;29;20482;-63
2022/07/16 00:43:23;;;;;;;1.60;1.50;;;23.60;47.80;;;;;;4869141;29;20431;-68
2022/07/16 00:45:49;;;;;;;1.50;1.40;;;23.60;47.80;;;;;;4869855;29;22731;-59
2022/07/16 00:48:15;;;;;;;1.50;1.40;;;23.60;47.80;;;;;;4870208;29;20255;-60
2022/07/16 00:50:41;;;;;;;1.53;1.43;;;23.60;47.80;;;;;;4872474;29;20188;-66
2022/07/16 00:53:11;;;;;;;1.57;1.47;;;23.60;47.80;;;;;;4874651;29;20189;-58
2022/07/16 00:55:37;;;;;;;1.60;1.50;;;23.60;47.80;;;;;;4875196;29;20454;-60
2022/07/16 00:58:03;;;;;;;1.50;1.40;;;23.60;47.80;;;;;;4873844;29;20434;-63
2022/07/16 01:00:29;;;;;;;2.07;1.50;;;23.60;47.80;;;;;;4871540;29;20486;-65
2022/07/16 01:02:57;;;;;;;1.53;1.43;;;23.60;47.80;;;;;;4875259;29;20439;-59
2022/07/16 01:05:24;;;;;;;1.67;1.57;;;23.60;47.80;;;;;;4871077;29;20431;-59
2022/07/16 01:07:50;;;;;;;1.30;1.20;;;23.60;47.80;;;;;;4871197;29;20442;-60
2022/07/16 01:10:18;;;;;;;1.60;1.50;;;23.60;47.80;;;;;;4881910;29;20527;-59
2022/07/16 01:12:45;;;;;;;1.40;1.30;;;23.60;47.80;;;;;;4867572;29;20609;-68
2022/07/16 01:15:12;;;;;;;1.40;1.30;;;23.60;47.80;;;;;;4873239;29;20427;-57
2022/07/16 01:17:37;;;;;;;1.40;1.30;;;23.60;47.80;;;;;;4867324;29;20482;-59
2022/07/16 01:20:05;;;;;;;1.40;1.30;;;23.60;47.80;;;;;;4883823;29;20805;-61
2022/07/16 01:22:31;;;;;;;1.50;1.40;;;23.60;47.90;;;;;;4868228;29;20348;-62
2022/07/16 01:24:57;;;;;;;1.40;1.30;;;23.60;47.80;;;;;;4879864;29;20487;-58
2022/07/16 01:27:23;;;;;;;1.70;1.60;;;23.60;47.80;;;;;;4871067;29;20192;-58
2022/07/16 01:29:50;;;;;;;1.47;1.37;;;23.60;47.80;;;;;;4870690;29;20438;-59
2022/07/16 01:32:15;;;;;;;1.50;1.40;;;23.60;47.80;;;;;;4867936;29;20506;-57
2022/07/16 01:34:41;;;;;;;2.03;1.70;;;23.60;47.80;;;;;;4868946;29;20447;-63
2022/07/16 01:37:09;;;;;;;1.77;1.67;;;23.60;47.80;;;;;;4867283;29;20203;-61
2022/07/16 01:39:37;;;;;;;1.37;1.27;;;23.60;47.80;;;;;;4875050;29;20457;-59
2022/07/16 01:42:08;;;;;;;1.60;1.50;;;23.60;47.80;;;;;;4873882;29;20486;-58
2022/07/16 01:44:35;;;;;;;1.37;1.27;;;23.60;47.80;;;;;;4871478;29;20507;-69
2022/07/16 01:47:04;;;;;;;1.60;1.50;;;23.60;47.80;;;;;;4866871;29;20526;-69
2022/07/16 01:49:36;;;;;;;1.40;1.30;;;23.60;47.80;;;;;;4866766;29;20447;-57
2022/07/16 01:52:11;;;;;;;1.50;1.40;;;23.60;47.80;;;;;;4867554;29;20447;-61
2022/07/16 01:54:43;;;;;;;1.50;1.40;;;23.60;47.90;;;;;;4877619;29;20490;-63
2022/07/16 01:57:10;;;;;;;1.70;1.60;;;23.60;47.80;;;;;;4877552;29;20436;-58
2022/07/16 01:59:37;;;;;;;1.40;1.30;;;23.60;47.80;;;;;;4872054;29;20444;-68
2022/07/16 02:02:06;;;;;;;1.47;1.37;;;23.60;47.80;;;;;;4875512;29;20582;-62
2022/07/16 02:04:34;;;;;;;1.60;1.50;;;23.60;47.90;;;;;;4869217;29;20455;-69
2022/07/16 02:06:59;;;;;;;1.40;1.30;;;23.60;47.80;;;;;;4867758;29;21071;-63
2022/07/16 02:09:27;;;;;;;1.47;1.37;;;23.60;47.80;;;;;;4864534;29;20478;-58
2022/07/16 02:11:54;;;;;;;1.47;1.37;;;23.60;47.80;;;;;;4878487;29;20203;-62
2022/07/16 02:14:20;;;;;;;1.43;1.33;;;23.60;47.80;;;;;;4870107;29;20454;-64
2022/07/16 02:16:47;;;;;;;1.60;1.50;;;23.60;47.80;;;;;;4867184;29;20443;-69
2022/07/16 02:19:13;;;;;;;1.50;1.40;;;23.60;47.80;;;;;;4866534;29;20192;-65
2022/07/16 02:21:40;;;;;;;1.40;1.30;;;23.60;47.80;;;;;;4873545;29;20471;-60
2022/07/16 02:24:08;;;;;;;1.40;1.30;;;23.60;47.80;;;;;;4871659;29;21475;-60
2022/07/16 02:26:33;;;;;;;1.43;1.33;;;23.60;47.80;;;;;;4879729;29;21072;-60
2022/07/16 02:29:00;;;;;;;1.30;1.20;;;23.60;47.80;;;;;;4870012;29;20439;-57
2022/07/16 02:31:25;;;;;;;1.50;1.40;;;23.60;47.80;;;;;;4867234;29;20188;-59
2022/07/16 02:33:52;;;;;;;1.30;1.20;;;23.60;47.80;;;;;;4867789;29;20794;-64
2022/07/16 02:36:19;;;;;;;1.50;1.40;;;23.60;47.80;;;;;;4876494;29;20203;-59
2022/07/16 02:38:45;;;;;;;1.50;1.40;;;23.60;47.80;;;;;;4867031;29;20446;-61
2022/07/16 02:41:10;;;;;;;1.40;1.30;;;23.60;47.80;;;;;;4873010;29;20478;-60
2022/07/16 02:43:36;;;;;;;1.70;1.60;;;23.60;47.80;;;;;;4878957;29;20200;-61
2022/07/16 02:46:02;;;;;;;1.50;1.40;;;23.60;47.80;;;;;;4865489;29;20195;-69
2022/07/16 02:48:28;;;;;;;1.60;1.50;;;23.60;47.80;;;;;;4866261;29;20900;-64
2022/07/16 02:50:59;;;;;;;1.40;1.30;;;23.60;47.80;;;;;;4866302;29;20188;-68
2022/07/16 02:53:25;;;;;;;1.40;1.30;;;23.60;47.80;;;;;;4866705;29;20725;-63
2022/07/16 02:55:50;;;;;;;1.60;1.50;;;23.60;47.80;;;;;;4871495;29;20454;-63
2022/07/16 02:58:19;;;;;;;1.50;1.40;;;23.60;47.80;;;;;;4878465;29;20192;-58
2022/07/16 03:00:44;;;;;;;1.40;1.30;;;23.60;47.80;;;;;;4870191;29;20219;-59
2022/07/16 03:03:13;;;;;;;1.60;1.50;;;23.60;47.80;;;;;;4869941;29;20447;-59
2022/07/16 03:05:39;;;;;;;1.43;1.33;;;23.60;47.80;;;;;;4872546;29;20206;-66
2022/07/16 03:08:05;;;;;;;1.30;1.20;;;23.60;47.80;;;;;;4866817;29;20578;-65
2022/07/16 03:10:31;;;;;;;1.47;1.37;;;23.60;47.80;;;;;;4871851;29;20444;-57
2022/07/16 03:12:57;;;;;;;1.50;1.40;;;23.60;47.80;;;;;;4876325;29;20279;-57
2022/07/16 03:15:22;;;;;;;1.57;1.47;;;23.60;47.80;;;;;;4868112;29;20203;-63
2022/07/16 03:17:48;;;;;;;1.60;1.50;;;23.60;47.80;;;;;;4870594;29;20576;-66
2022/07/16 03:20:14;;;;;;;1.40;1.30;;;23.60;47.80;;;;;;4867141;29;20186;-71
2022/07/16 03:22:44;;;;;;;1.20;1.20;;;23.60;47.80;;;;;;4867260;29;20224;-65
2022/07/16 03:25:11;;;;;;;1.43;1.33;;;23.60;47.80;;;;;;4869109;29;20185;-60
2022/07/16 03:27:36;;;;;;;1.40;1.30;;;23.60;47.80;;;;;;4873770;29;20431;-59
2022/07/16 03:30:02;;;;;;;1.60;1.50;;;23.60;48.60;;;;;;4877125;29;22857;-59
2022/07/16 03:32:28;;;;;;;1.60;1.50;;;23.60;47.80;;;;;;4868542;29;20234;-59
2022/07/16 03:34:55;;;;;;;1.40;1.30;;;23.60;47.80;;;;;;4867779;29;20529;-58
2022/07/16 03:37:20;;;;;;;1.60;1.50;;;23.60;47.80;;;;;;4871228;29;20208;-61
2022/07/16 03:39:46;;;;;;;1.73;1.63;;;23.60;47.80;;;;;;4868160;29;20499;-59
2022/07/16 03:42:12;;;;;;;1.30;1.20;;;23.60;47.80;;;;;;4869679;29;20490;-59
2022/07/16 03:44:38;;;;;;;1.50;1.40;;;23.60;47.80;;;;;;4876339;29;20943;-66
2022/07/16 03:47:04;;;;;;;1.50;1.40;;;23.60;47.80;;;;;;4866512;29;20187;-71
2022/07/16 03:49:30;;;;;;;1.50;1.40;;;23.60;47.80;;;;;;4868810;29;20181;-62
2022/07/16 03:51:55;;;;;;;1.57;1.47;;;23.60;47.80;;;;;;4866562;29;20208;-58
2022/07/16 03:54:21;;;;;;;1.50;1.40;;;23.60;47.80;;;;;;4869415;29;20442;-68
2022/07/16 03:56:47;;;;;;;1.30;1.20;;;23.60;47.80;;;;;;4869952;29;20192;-66
2022/07/16 03:59:13;;;;;;;1.40;1.30;;;23.60;47.80;;;;;;4879423;29;20183;-65
2022/07/16 04:01:38;;;;;;;1.37;1.27;;;23.60;47.80;;;;;;4875203;29;20220;-61
2022/07/16 04:04:04;;;;;;;1.70;1.60;;;23.60;47.80;;;;;;4870536;29;22003;-58
2022/07/16 04:06:31;;;;;;;1.40;1.30;;;23.60;47.80;;;;;;4868275;29;20232;-57
2022/07/16 04:08:57;;;;;;;1.43;1.33;;;23.60;47.80;;;;;;4870886;29;20201;-67
2022/07/16 04:11:23;;;;;;;1.40;1.30;;;23.60;47.80;;;;;;4872529;29;20521;-71
2022/07/16 04:13:49;;;;;;;1.60;1.50;;;23.60;47.80;;;;;;4871852;29;21008;-66
2022/07/16 04:16:14;;;;;;;1.53;1.43;;;23.60;47.80;;;;;;4884577;29;20203;-59
2022/07/16 04:18:40;;;;;;;1.50;1.40;;;23.60;47.80;;;;;;4872454;29;20327;-60
2022/07/16 04:21:06;;;;;;;1.37;1.27;;;23.60;47.80;;;;;;4868498;29;20695;-57
2022/07/16 04:23:34;;;;;;;1.50;1.40;;;23.60;47.80;;;;;;4869989;29;20950;-60
2022/07/16 04:26:00;;;;;;;1.40;1.30;;;23.60;48.00;;;;;;4874723;29;20469;-57
2022/07/16 04:28:25;;;;;;;1.40;1.30;;;23.60;47.80;;;;;;4872636;29;20435;-58
2022/07/16 04:30:51;;;;;;;1.60;1.50;;;23.60;47.80;;;;;;4878159;29;20473;-62
2022/07/16 04:33:18;;;;;;;1.40;1.30;;;23.60;47.80;;;;;;4871705;29;20196;-64
2022/07/16 04:35:45;;;;;;;1.30;1.20;;;23.60;47.80;;;;;;4869623;29;20202;-58
2022/07/16 04:38:10;;;;;;;1.33;1.23;;;23.60;47.90;;;;;;4875274;29;20442;-70
2022/07/16 04:40:36;;;;;;;1.37;1.27;;;23.60;47.80;;;;;;4870947;29;20473;-58
2022/07/16 04:43:01;;;;;;;1.40;1.30;;;23.60;47.80;;;;;;4870928;29;20180;-71
2022/07/16 04:45:27;;;;;;;1.50;1.40;;;23.60;47.80;;;;;;4881513;29;20603;-59
2022/07/16 04:47:53;;;;;;;1.40;1.30;;;23.60;47.80;;;;;;4869646;29;20212;-58
2022/07/16 04:50:18;;;;;;;1.60;1.50;;;23.60;47.80;;;;;;4878282;29;20181;-65
2022/07/16 04:52:44;;;;;;;1.30;1.20;;;23.60;47.80;;;;;;4872263;29;21131;-59
2022/07/16 04:55:10;;;;;;;1.50;1.40;;;23.60;47.80;;;;;;4867988;29;20188;-69
2022/07/16 04:57:35;;;;;;;1.50;1.40;;;23.60;47.80;;;;;;4868080;29;20243;-70
2022/07/16 05:00:01;;;;;;;1.33;1.23;;;23.60;47.80;;;;;;4877783;29;20191;-57
2022/07/16 05:05:12;;;;;;;1.70;1.60;;;23.60;47.90;;;;;;4868842;29;20191;-64
2022/07/16 05:07:37;;;;;;;1.43;1.33;;;23.60;47.80;;;;;;4871657;29;20440;-63
2022/07/16 05:10:03;;;;;;;1.40;1.30;;;23.60;47.80;;;;;;4867995;29;20447;-59
2022/07/16 05:12:29;;;;;;;1.50;1.40;;;23.60;47.80;;;;;;4870063;29;20200;-70
2022/07/16 05:14:55;;;;;;;1.60;1.50;;;23.60;47.80;;;;;;4880731;29;20180;-59
2022/07/16 05:17:21;;;;;;;1.23;1.13;;;23.60;48.00;;;;;;4877653;29;20919;-61
2022/07/16 05:19:46;;;;;;;1.47;1.37;;;23.60;47.80;;;;;;4869395;29;20224;-59
2022/07/16 05:22:12;;;;;;;1.30;1.20;;;23.60;47.80;;;;;;4867896;29;20220;-61
2022/07/16 05:24:37;;;;;;;1.50;1.40;;;23.60;47.80;;;;;;4871818;29;20188;-67
2022/07/16 05:27:03;;;;;;;1.30;1.20;;;23.60;47.80;;;;;;4872003;29;20212;-63
2022/07/16 05:29:29;;;;;;;1.30;1.20;;;23.60;47.80;;;;;;4870008;29;20204;-67
2022/07/16 05:31:57;;;;;;;1.70;1.60;;;23.60;47.80;;;;;;4878398;29;20438;-59
2022/07/16 05:34:22;;;;;;;1.43;1.33;;;23.60;47.80;;;;;;4867687;29;20648;-64
2022/07/16 05:36:48;;;;;;;1.70;1.60;;;23.60;47.80;;;;;;4872952;29;20442;-61
2022/07/16 05:39:14;;;;;;;1.40;1.30;;;23.60;47.80;;;;;;4872216;29;20272;-69
2022/07/16 05:41:41;;;;;;;1.30;1.20;;;23.60;47.80;;;;;;4868429;29;21140;-58
2022/07/16 05:44:07;;;;;;;1.70;1.60;;;23.60;47.80;;;;;;4866473;29;20603;-70
2022/07/16 05:46:33;;;;;;;1.40;1.30;;;23.60;47.80;;;;;;4877415;29;21046;-63
2022/07/16 05:48:59;;;;;;;1.50;1.40;;;23.60;47.80;;;;;;4871946;29;20441;-58
2022/07/16 05:51:26;;;;;;;1.30;1.20;;;23.60;47.80;;;;;;4868896;29;20192;-69
2022/07/16 05:53:52;;;;;;;1.37;1.27;;;23.60;47.80;;;;;;4867594;29;20564;-69
2022/07/16 05:56:17;;;;;;;1.60;1.40;;;23.60;47.80;;;;;;4868082;29;20465;-63
2022/07/16 05:58:43;;;;;;;1.50;1.40;;;23.50;47.80;;;;;;4867649;29;20204;-66
2022/07/16 06:01:09;;;;;;;1.43;1.33;;;23.60;47.80;;;;;;4876567;29;20319;-60
2022/07/16 06:03:37;;;;;;;1.57;1.47;;;23.50;47.80;;;;;;4876794;29;20220;-68
2022/07/16 06:06:03;;;;;;;1.53;1.43;;;23.60;47.80;;;;;;4872721;29;20923;-61
2022/07/16 06:08:28;;;;;;;1.50;1.40;;;23.60;47.80;;;;;;4868656;29;20806;-62
2022/07/16 06:10:54;;;;;;;1.83;1.73;;;23.60;47.80;;;;;;4872697;29;20800;-57
2022/07/16 06:13:20;;;;;;;1.30;1.20;;;23.60;47.80;;;;;;4872572;29;20199;-57
2022/07/16 06:15:48;;;;;;;1.80;1.70;;;23.60;47.80;;;;;;4873738;29;20279;-64
2022/07/16 06:18:14;;;;;;;1.67;1.57;;;23.50;47.70;;;;;;4876224;29;20231;-67
2022/07/16 06:20:39;;;;;;;1.40;1.30;;;23.50;47.70;;;;;;4866771;29;21098;-70
2022/07/16 06:23:05;;;;;;;1.40;1.30;;;23.60;47.80;;;;;;4867589;29;20202;-69
2022/07/16 06:25:32;;;;;;;1.40;1.30;;;23.60;47.80;;;;;;4869725;29;20203;-68
2022/07/16 06:27:57;;;;;;;1.50;1.40;;;23.50;47.80;;;;;;4865507;29;20261;-60
2022/07/16 06:30:23;;;;;;;1.60;1.50;;;23.50;47.80;;;;;;4866736;29;20471;-64
2022/07/16 06:32:49;;;;;;;1.50;1.40;;;23.60;48.60;;;;;;4874586;29;20268;-57
2022/07/16 06:35:15;;;;;;;1.40;1.30;;;23.50;47.70;;;;;;4869020;29;20196;-60
2022/07/16 06:37:41;;;;;;;3.13;1.60;;;23.60;47.80;;;;;;4876549;29;20192;-68
2022/07/16 06:40:07;;;;;;;1.67;1.57;;;23.60;47.80;;;;;;4867366;29;20494;-67
2022/07/16 06:42:34;;;;;;;2.20;1.40;;;23.60;47.80;;;;;;4866751;29;20710;-67
2022/07/16 06:45:01;;;;;;;1.47;1.37;;;23.60;47.80;;;;;;4866957;29;20465;-61
2022/07/16 06:47:27;;;;;;;1.43;1.33;;;23.60;47.80;;;;;;4869963;29;20431;-62
2022/07/16 06:49:53;;;;;;;1.47;1.37;;;23.60;47.80;;;;;;4877600;29;20471;-61
2022/07/16 06:52:19;;;;;;;1.43;1.33;;;23.60;47.80;;;;;;4865922;29;20339;-57
2022/07/16 06:54:46;;;;;;;1.40;1.30;;;23.60;47.80;;;;;;4864913;29;20659;-58
2022/07/16 06:57:12;;;;;;;1.60;1.50;;;23.60;47.80;;;;;;4868357;29;20805;-66
2022/07/16 06:59:37;;;;;;;1.60;1.50;;;23.60;47.80;;;;;;4866621;29;20288;-60
2022/07/16 07:02:03;;;;;;;1.60;1.50;;;23.60;47.80;;;;;;4869368;29;20215;-58
2022/07/16 07:04:28;;;;;;;1.70;1.60;;;23.60;47.80;;;;;;4875330;29;22529;-57
2022/07/16 07:06:54;;;;;;;1.53;1.43;;;23.60;48.60;;;;;;4868890;29;20184;-62
2022/07/16 07:09:20;;;;;;;1.90;1.80;;;23.60;47.80;;;;;;4869345;29;20283;-58
2022/07/16 07:11:46;;;;;;;1.67;1.57;;;23.60;47.80;;;;;;4868033;29;20644;-58
2022/07/16 07:14:12;;;;;;;1.53;1.43;;;23.60;48.00;;;;;;4869162;29;20181;-63
2022/07/16 07:16:38;;;;;;;1.40;1.30;;;23.60;47.80;;;;;;4865488;29;20428;-59
2022/07/16 07:19:03;;;;;;;1.80;1.70;;;23.60;47.80;;;;;;4872883;29;20481;-57
2022/07/16 07:21:29;;;;;;;1.43;1.33;;;23.60;47.80;;;;;;4868263;29;20244;-58
2022/07/16 07:23:55;;;;;;;1.63;1.53;;;23.60;47.80;;;;;;4871431;29;20188;-61
2022/07/16 07:26:21;;;;;;;1.90;1.40;;;23.60;48.60;;;;;;4866523;29;20180;-62
2022/07/16 07:28:46;;;;;;;1.60;1.50;;;23.60;47.80;;;;;;4866186;29;20188;-68
2022/07/16 07:31:12;;;;;;;1.80;1.70;;;23.60;47.80;;;;;;4868134;29;20581;-63
2022/07/16 07:33:38;;;;;;;1.73;1.63;;;23.60;47.80;;;;;;4873552;29;20224;-66
2022/07/16 07:36:04;;;;;;;1.50;1.40;;;23.60;47.80;;;;;;4876169;29;20195;-57
2022/07/16 07:38:31;;;;;;;1.63;1.53;;;23.50;48.50;;;;;;4873903;29;20453;-62
2022/07/16 07:40:57;;;;;;;1.60;1.50;;;23.60;47.80;;;;;;4869168;29;20660;-59
2022/07/16 07:43:23;;;;;;;1.83;1.73;;;23.60;47.80;;;;;;4873476;29;20521;-64
2022/07/16 07:45:49;;;;;;;1.70;1.60;;;23.60;47.80;;;;;;4882435;29;20457;-58
2022/07/16 07:48:14;;;;;;;1.70;1.60;;;23.60;47.80;;;;;;4874026;29;20187;-62
2022/07/16 07:50:41;;;;;;;1.60;1.50;;;23.60;47.80;;;;;;4880224;29;20232;-60
2022/07/16 07:53:07;;;;;;;1.70;1.60;;;23.60;47.80;;;;;;4870108;29;20553;-66
2022/07/16 07:55:33;;;;;;;1.53;1.43;;;23.60;47.80;;;;;;4872914;29;20439;-59
2022/07/16 07:57:59;;;;;;;1.90;1.80;;;23.60;47.80;;;;;;4875620;29;20769;-58
2022/07/16 08:00:26;;;;;;;1.50;1.40;;;23.60;47.80;;;;;;4876037;29;20994;-57
2022/07/16 08:02:51;;;;;;;1.70;1.60;;;23.60;47.80;;;;;;4876703;29;20479;-58
2022/07/16 08:05:17;;;;;;;1.60;1.50;;;23.60;47.80;;;;;;4875139;29;20467;-60
2022/07/16 08:07:44;;;;;;;1.80;1.70;;;23.60;47.80;;;;;;4876816;29;20193;-70
2022/07/16 08:10:11;;;;;;;1.53;1.43;;;23.60;47.80;;;;;;4871565;29;20984;-61
2022/07/16 08:12:38;;;;;;;2.00;1.90;;;23.60;47.80;;;;;;4874824;29;20446;-70
2022/07/16 08:15:05;;;;;;;1.70;1.60;;;23.60;47.80;;;;;;4872832;29;20505;-58
2022/07/16 08:17:30;;;;;;;1.60;1.50;;;23.60;47.80;;;;;;4871924;29;20506;-61
2022/07/16 08:19:56;;;;;;;1.63;1.53;;;23.60;47.80;;;;;;4874165;29;21010;-69
2022/07/16 08:22:22;;;;;;;1.53;1.43;;;23.60;47.80;;;;;;4878985;29;20318;-67
2022/07/16 08:27:32;;;;;;;1.60;1.50;;;23.60;47.80;;;;;;4869034;29;20244;-63
2022/07/16 08:29:58;;;;;;;1.50;1.40;;;23.60;47.80;;;;;;4872264;29;20434;-61
2022/07/16 08:32:23;;;;;;;1.50;1.40;;;23.60;47.80;;;;;;4872071;29;20203;-60
2022/07/16 08:34:50;;;;;;;1.80;1.70;;;23.60;47.80;;;;;;4876355;29;20304;-59
2022/07/16 08:37:29;;;;;;;1.40;1.30;;;23.60;47.80;;;;;;4877378;29;20338;-63
2022/07/16 08:39:55;;;;;;;1.50;1.40;;;23.50;47.70;;;;;;4872923;29;20470;-57
2022/07/16 08:42:21;;;;;;;1.60;1.50;;;23.50;47.80;;;;;;4874688;29;21348;-61
2022/07/16 08:44:49;;;;;;;1.90;1.80;;;23.60;47.80;;;;;;4878272;29;20443;-60
2022/07/16 08:47:15;;;;;;;1.33;1.23;;;23.60;47.80;;;;;;4868335;29;20451;-68
2022/07/16 08:49:44;;;;;;;1.30;1.20;;;23.60;47.80;;;;;;4868345;29;20645;-61
2022/07/16 08:52:11;;;;;;;1.40;1.30;;;23.60;47.80;;;;;;4878530;29;20950;-57
2022/07/16 08:54:38;;;;;;;1.47;1.37;;;23.60;47.80;;;;;;4875384;29;20436;-70
2022/07/16 08:57:04;;;;;;;1.53;1.43;;;23.60;47.80;;;;;;4868701;29;20445;-60
2022/07/16 08:59:30;;;;;;;1.37;1.27;;;23.60;47.80;;;;;;4876307;29;20467;-67
2022/07/16 09:01:56;;;;;;;1.63;1.37;;;23.60;47.80;;;;;;4876741;29;20557;-58
2022/07/16 09:04:21;;;;;;;1.43;1.33;;;23.60;47.80;;;;;;4872211;29;20235;-58
2022/07/16 09:06:47;;;;;;;1.30;1.20;;;23.60;47.80;;;;;;4868519;29;20184;-60
2022/07/16 09:09:13;;;;;;;1.40;1.30;;;23.60;47.80;;;;;;4882919;29;20185;-62
2022/07/16 09:11:39;;;;;;;1.33;1.23;;;23.50;47.70;;;;;;4874355;29;20934;-58
2022/07/16 09:14:09;;;;;;;1.43;1.33;;;23.60;47.80;;;;;;4871894;29;20455;-57
2022/07/16 09:16:38;;;;;;;1.60;1.50;;;23.60;47.80;;;;;;4874249;29;20431;-61
2022/07/16 09:19:24;;;;;;;1.40;1.30;;;23.60;47.80;;;;;;4869112;29;20490;-71
2022/07/16 09:22:07;;;;;;;1.30;1.20;;;23.60;47.80;;;;;;4867759;29;20471;-70
2022/07/16 09:24:40;;;;;;;1.50;1.40;;;23.60;47.80;;;;;;4882278;29;20526;-70
2022/07/16 09:27:23;;;;;;;1.67;1.57;;;23.60;47.80;;;;;;4868313;29;20566;-65
2022/07/16 09:30:02;;;;;;;1.50;1.40;;;23.60;47.80;;;;;;4873695;29;20461;-58
2022/07/16 09:32:34;;;;;;;1.60;1.50;;;23.60;47.80;;;;;;4872961;29;20454;-58
2022/07/16 09:35:02;;;;;;;1.37;1.27;;;23.60;47.80;;;;;;4868608;29;21465;-68
2022/07/16 09:37:48;;;;;;;1.73;1.63;;;23.60;47.90;;;;;;4870892;29;20446;-60
2022/07/16 09:40:14;;;;;;;1.40;1.30;;;23.60;47.80;;;;;;4881377;29;20445;-71
2022/07/16 09:42:41;;;;;;;1.30;1.20;;;23.60;47.80;;;;;;4873034;29;20493;-60
2022/07/16 09:45:18;;;;;;;1.50;1.40;;;23.50;47.80;;;;;;4870743;29;20440;-67
2022/07/16 09:47:43;;;;;;;1.33;1.23;;;23.60;47.80;;;;;;4872297;29;20436;-63
2022/07/16 09:50:09;;;;;;;1.20;1.10;;;23.60;47.80;;;;;;4866982;29;20785;-62
2022/07/16 09:52:35;;;;;;;1.40;1.30;;;23.60;47.80;;;;;;4865777;29;20193;-65
2022/07/16 09:55:01;;;;;;;1.40;1.30;;;23.60;47.80;;;;;;4875352;29;20300;-57
2022/07/16 09:57:28;;;;;;;1.30;1.20;;;23.60;47.80;;;;;;4869920;29;20295;-61
2022/07/16 09:59:55;;;;;;;1.30;1.20;;;23.60;47.80;;;;;;4866419;29;20439;-60
2022/07/16 10:02:22;;;;;;;1.30;1.20;;;23.60;47.80;;;;;;4866475;29;20473;-64
2022/07/16 10:04:48;;;;;;;1.13;1.10;;;23.60;47.80;;;;;;4867025;29;20450;-70
2022/07/16 10:07:14;;;;;;;1.50;1.40;;;23.60;47.80;;;;;;4872990;29;20482;-62
2022/07/16 10:09:40;;;;;;;1.10;1.10;;;23.60;47.80;;;;;;4877856;29;20547;-60
2022/07/16 10:12:10;;;;;;;1.50;1.40;;;23.60;47.80;;;;;;4868965;29;20199;-60
2022/07/16 10:14:41;;;;;;;1.30;1.20;;;23.60;47.80;;;;;;4874234;29;20447;-57
2022/07/16 10:17:17;;;;;;;1.30;1.20;;;23.60;47.80;;;;;;4869060;29;20557;-60
2022/07/16 10:19:44;;;;;;;1.30;1.20;;;23.50;47.70;;;;;;4866020;29;20430;-61
2022/07/16 10:22:21;;;;;;;1.30;1.20;;;23.60;47.80;;;;;;4869441;29;20471;-71
2022/07/16 10:24:53;;;;;;;1.50;1.40;;;23.60;47.80;;;;;;4878862;29;20951;-58
2022/07/16 10:27:35;;;;;;;1.10;1.10;;;23.60;47.80;;;;;;4870939;29;21017;-61
2022/07/16 10:30:21;;;;;;;1.10;1.00;;;23.60;48.60;;;;;;4867671;29;21493;-57
2022/07/16 10:32:59;;;;;;;1.17;1.07;;;23.60;47.80;;;;;;4871109;29;20551;-68
2022/07/16 10:35:31;;;;;;;1.20;1.10;;;23.60;47.80;;;;;;4850541;29;20566;-60
2022/07/16 10:38:11;;;;;;;1.17;1.07;;;23.60;47.80;;;;;;4865836;29;20443;-66
2022/07/16 10:40:38;;;;;;;1.30;1.20;;;23.50;47.80;;;;;;4877179;29;20866;-59
2022/07/16 10:43:18;;;;;;;1.30;1.20;;;23.50;47.80;;;;;;4872786;29;20451;-68
2022/07/16 10:46:05;;;;;;;1.30;1.20;;;23.60;48.60;;;;;;4868787;29;20458;-62
2022/07/16 10:48:51;;;;;;;1.43;1.33;;;23.50;47.80;;;;;;4866427;29;20921;-61
2022/07/16 10:51:22;;;;;;;1.53;1.20;;;23.60;47.80;;;;;;4866112;29;20482;-57
2022/07/16 10:54:02;;;;;;;1.37;1.27;;;23.50;47.70;;;;;;4867633;29;20455;-65
2022/07/16 10:56:49;;;;;;;1.33;1.23;;;23.60;47.80;;;;;;4877955;29;20483;-71
2022/07/16 10:59:23;;;;;;;1.20;1.10;;;23.60;47.80;;;;;;4867297;29;20491;-64
2022/07/16 11:01:54;;;;;;;1.30;1.20;;;23.60;47.80;;;;;;4849961;29;21692;-58
2022/07/16 11:04:28;;;;;;;1.20;1.10;;;23.50;47.70;;;;;;4864905;29;21692;-57
2022/07/16 11:06:55;;;;;;;1.10;1.00;;;23.50;47.70;;;;;;4865757;29;20499;-58
2022/07/16 11:09:32;;;;;;;1.30;1.20;;;23.60;47.80;;;;;;4870651;29;20816;-60
2022/07/16 11:12:24;;;;;;;1.30;1.10;;;23.60;47.70;;;;;;4872799;29;20446;-68
2022/07/16 11:14:52;;;;;;;1.30;1.20;;;23.50;47.60;;;;;;4868928;29;20786;-58
2022/07/16 11:17:21;;;;;;;1.17;1.07;;;23.50;47.70;;;;;;4865916;29;20493;-68
2022/07/16 11:19:51;;;;;;;1.33;1.23;;;23.60;47.80;;;;;;4869316;29;20435;-61
2022/07/16 11:22:21;;;;;;;1.20;1.10;;;23.50;47.70;;;;;;4865701;29;20550;-61
2022/07/16 11:24:53;;;;;;;1.40;1.30;;;23.60;47.60;;;;;;4873368;29;20447;-60
2022/07/16 11:27:26;;;;;;;1.30;1.20;;;23.60;47.60;;;;;;4877664;29;20434;-60
2022/07/16 11:29:56;;;;;;;1.30;1.20;;;23.50;47.50;;;;;;4872227;29;20439;-58
2022/07/16 11:32:21;;;;;;;1.33;1.23;;;23.60;47.60;;;;;;4865897;29;20534;-63
2022/07/16 11:34:48;;;;;;;1.30;1.20;;;23.50;47.50;;;;;;4871016;29;20525;-58
2022/07/16 11:37:14;;;;;;;1.37;1.23;;;23.60;47.60;;;;;;4865980;29;20645;-68
2022/07/16 11:39:40;;;;;;;1.20;1.10;;;23.60;47.50;;;;;;4865304;29;20439;-68
2022/07/16 11:42:06;;;;;;;1.00;1.00;;;23.50;47.50;;;;;;4878163;29;20295;-59
2022/07/16 11:44:33;;;;;;;1.20;1.10;;;23.60;47.60;;;;;;4866874;29;20180;-57
2022/07/16 11:47:01;;;;;;;1.20;1.10;;;23.60;47.40;;;;;;4868618;29;20815;-57
2022/07/16 11:49:29;;;;;;;1.20;1.10;;;23.50;47.50;;;;;;4852731;29;22414;-57
2022/07/16 11:52:24;;;;;;;1.13;1.07;;;23.60;47.50;;;;;;4867944;29;20447;-57
2022/07/16 11:54:51;;;;;;;1.10;1.00;;;23.60;47.40;;;;;;4858336;29;20447;-57
2022/07/16 11:57:18;;;;;;;1.20;1.10;;;23.50;47.30;;;;;;4874989;29;20435;-62
2022/07/16 11:59:48;;;;;;;1.17;1.07;;;23.60;47.30;;;;;;4869814;29;20786;-61
2022/07/16 12:02:17;;;;;;;1.30;1.20;;;23.60;47.40;;;;;;4865248;29;20522;-68
2022/07/16 12:04:51;;;;;;;1.30;1.20;;;23.60;47.30;;;;;;4868377;29;20455;-60
2022/07/16 12:07:24;;;;;;;1.40;1.30;;;23.60;47.30;;;;;;4865339;29;20956;-68
2022/07/16 12:09:55;;;;;;;1.23;1.13;;;23.60;47.30;;;;;;4871862;29;20434;-61
2022/07/16 12:12:29;;;;;;;1.00;1.00;;;23.60;47.30;;;;;;4872498;29;20442;-60
2022/07/16 12:15:00;;;;;;;1.20;1.10;;;23.60;47.30;;;;;;4872460;29;20560;-59
2022/07/16 12:17:37;;;;;;;1.20;1.10;;;23.60;47.30;;;;;;4868614;29;20568;-58
2022/07/16 12:20:12;;;;;;;1.30;1.20;;;23.50;47.20;;;;;;4872609;29;20430;-58
2022/07/16 12:23:10;;;;;;;1.30;1.20;;;23.50;47.20;;;;;;4874419;29;20565;-61
2022/07/16 12:25:45;;;;;;;1.20;1.10;;;23.60;47.30;;;;;;4870972;29;20541;-67
2022/07/16 12:28:18;;;;;;;1.37;1.10;;;23.50;47.20;;;;;;4879463;29;20427;-70
2022/07/16 12:30:53;;;;;;;1.20;1.10;;;23.50;47.10;;;;;;4873568;29;20950;-63
2022/07/16 12:33:18;;;;;;;0.90;0.90;;;23.60;47.40;;;;;;4873001;29;20464;-59
2022/07/16 12:35:47;;;;;;;1.20;1.07;;;23.50;47.30;;;;;;4872124;29;21765;-58
2022/07/16 12:39:00;;;;;;;1.57;0.90;;;23.50;47.20;;;;;;4872890;29;20240;-68
2022/07/16 12:41:37;;;;;;;1.10;1.00;;;23.50;47.20;;;;;;4867699;29;20553;-58
2022/07/16 12:44:12;;;;;;;1.20;1.10;;;23.50;47.20;;;;;;4878768;29;20443;-70
2022/07/16 12:46:44;;;;;;;1.30;1.20;;;23.60;47.30;;;;;;4868687;29;21636;-60
2022/07/16 12:49:17;;;;;;;1.10;1.00;;;23.60;47.30;;;;;;4868358;29;20447;-69
2022/07/16 12:51:45;;;;;;;1.00;1.00;;;23.60;47.30;;;;;;4868979;29;20953;-63
2022/07/16 12:54:13;;;;;;;1.20;1.10;;;23.50;47.20;;;;;;4871050;29;20437;-58
2022/07/16 12:59:25;;;;;;;1.27;1.17;;;23.60;47.20;;;;;;4880405;29;20517;-59
2022/07/16 13:01:52;;;;;;;1.43;1.33;;;23.50;47.20;;;;;;4870464;29;20566;-69
2022/07/16 13:04:18;;;;;;;1.20;1.10;;;23.60;47.20;;;;;;4871481;29;22964;-60